createdAt,value
2017-03-20T00:00:30.315Z,19.32
2017-03-20T00:01:40.871Z,19.42
2017-03-20T00:02:51.168Z,19.39
2017-03-20T00:04:01.486Z,19.35
2017-03-20T00:05:11.830Z,19.32
2017-03-20T00:06:22.132Z,19.37
2017-03-20T00:07:32.761Z,19.37
2017-03-20T00:08:43.066Z,19.38
2017-03-20T00:09:53.376Z,19.39
2017-03-20T00:11:03.368Z,19.3
2017-03-20T00:12:13.690Z,19.39
2017-03-20T00:13:24.248Z,19.41
2017-03-20T00:14:34.564Z,19.35
2017-03-20T00:15:44.864Z,19.34
2017-03-20T00:16:54.842Z,19.41
2017-03-20T00:18:05.158Z,19.34
2017-03-20T00:19:15.710Z,19.35
2017-03-20T00:20:26.011Z,19.35
2017-03-20T00:21:36.331Z,19.44
2017-03-20T00:22:46.657Z,19.35
2017-03-20T00:23:56.648Z,19.37
2017-03-20T00:25:07.191Z,19.35
2017-03-20T00:26:17.499Z,19.39
2017-03-20T00:27:27.793Z,19.34
2017-03-20T00:28:38.110Z,19.34
2017-03-20T00:29:47.783Z,19.32
2017-03-20T00:30:58.342Z,19.39
2017-03-20T00:32:08.680Z,19.34
2017-03-20T00:33:18.663Z,19.44
2017-03-20T00:34:28.338Z,19.41
2017-03-20T00:35:38.679Z,19.37
2017-03-20T00:36:49.236Z,19.32
2017-03-20T00:37:59.540Z,19.34
2017-03-20T00:39:09.534Z,19.39
2017-03-20T00:40:19.534Z,19.39
2017-03-20T00:41:29.207Z,19.35
2017-03-20T00:42:39.769Z,19.32
2017-03-20T00:43:49.458Z,19.44
2017-03-20T00:44:59.770Z,19.37
2017-03-20T00:46:10.064Z,19.32
2017-03-20T00:47:20.382Z,19.32
2017-03-20T00:48:30.635Z,19.37
2017-03-20T00:49:40.629Z,19.37
2017-03-20T00:50:50.615Z,19.32
2017-03-20T00:52:00.957Z,19.35
2017-03-20T00:53:11.255Z,19.37
2017-03-20T00:54:21.822Z,19.37
2017-03-20T00:55:32.132Z,19.37
2017-03-20T00:56:42.109Z,19.32
2017-03-20T00:57:52.407Z,19.38
2017-03-20T00:59:02.702Z,19.34
2017-03-20T01:00:13.248Z,19.35
2017-03-20T01:01:23.548Z,19.42
2017-03-20T01:02:33.851Z,19.35
2017-03-20T01:03:44.160Z,19.39
2017-03-20T01:04:54.465Z,19.38
2017-03-20T01:06:04.423Z,19.35
2017-03-20T01:07:14.736Z,19.35
2017-03-20T01:08:25.051Z,19.37
2017-03-20T01:09:35.041Z,19.34
2017-03-20T01:10:45.025Z,19.38
2017-03-20T01:11:55.256Z,19.38
2017-03-20T01:13:05.556Z,19.49
2017-03-20T01:14:15.869Z,19.37
2017-03-20T01:15:26.164Z,19.39
2017-03-20T01:16:36.497Z,19.38
2017-03-20T01:17:47.049Z,19.41
2017-03-20T01:18:57.358Z,19.39
2017-03-20T01:20:07.357Z,19.42
2017-03-20T01:21:17.668Z,19.48
2017-03-20T01:22:27.962Z,19.41
2017-03-20T01:23:38.298Z,19.39
2017-03-20T01:24:48.605Z,19.38
2017-03-20T01:25:58.272Z,19.39
2017-03-20T01:27:08.273Z,19.41
2017-03-20T01:28:18.273Z,19.39
2017-03-20T01:29:28.561Z,19.42
2017-03-20T01:30:38.541Z,19.39
2017-03-20T01:31:48.855Z,19.39
2017-03-20T01:32:59.159Z,19.44
2017-03-20T01:34:09.159Z,19.41
2017-03-20T01:35:19.725Z,19.35
2017-03-20T01:36:30.058Z,19.38
2017-03-20T01:37:40.069Z,19.48
2017-03-20T01:38:50.060Z,19.47
2017-03-20T01:40:00.362Z,19.35
2017-03-20T01:41:10.952Z,19.42
2017-03-20T01:42:21.242Z,19.41
2017-03-20T01:43:31.249Z,19.41
2017-03-20T01:44:41.563Z,19.37
2017-03-20T01:45:51.859Z,19.44
2017-03-20T01:47:02.608Z,19.38
2017-03-20T01:48:12.632Z,19.39
2017-03-20T01:49:23.619Z,19.48
2017-03-20T01:50:33.920Z,19.37
2017-03-20T01:51:44.207Z,19.37
2017-03-20T01:52:54.813Z,19.42
2017-03-20T01:54:04.816Z,19.34
2017-03-20T01:55:15.106Z,19.44
2017-03-20T01:56:25.412Z,19.41
2017-03-20T01:57:35.716Z,19.42
2017-03-20T01:58:46.014Z,19.47
2017-03-20T01:59:56.318Z,19.41
2017-03-20T02:01:06.618Z,19.38
2017-03-20T02:02:16.913Z,19.37
2017-03-20T02:03:27.217Z,19.39
2017-03-20T02:04:37.773Z,19.39
2017-03-20T02:05:47.444Z,19.42
2017-03-20T02:06:57.745Z,19.37
2017-03-20T02:08:08.052Z,19.44
2017-03-20T02:09:18.366Z,19.39
2017-03-20T02:10:28.650Z,19.42
2017-03-20T02:11:38.952Z,19.52
2017-03-20T02:12:48.937Z,19.49
2017-03-20T02:13:59.235Z,19.47
2017-03-20T02:15:09.208Z,19.47
2017-03-20T02:16:19.764Z,19.47
2017-03-20T02:17:29.758Z,19.44
2017-03-20T02:18:40.058Z,19.44
2017-03-20T02:19:50.045Z,19.52
2017-03-20T02:21:00.336Z,19.42
2017-03-20T02:22:10.890Z,19.48
2017-03-20T02:23:20.880Z,19.48
2017-03-20T02:24:31.178Z,19.42
2017-03-20T02:25:41.476Z,19.48
2017-03-20T02:26:51.770Z,19.42
2017-03-20T02:28:02.007Z,19.44
2017-03-20T02:29:12.320Z,19.39
2017-03-20T02:30:22.626Z,19.39
2017-03-20T02:31:32.940Z,19.48
2017-03-20T02:32:43.271Z,19.48
2017-03-20T02:33:53.818Z,19.47
2017-03-20T02:35:04.125Z,19.44
2017-03-20T02:36:14.454Z,19.42
2017-03-20T02:37:24.751Z,19.47
2017-03-20T02:38:35.054Z,19.48
2017-03-20T02:39:45.286Z,19.42
2017-03-20T02:40:55.274Z,19.39
2017-03-20T02:42:05.571Z,19.48
2017-03-20T02:43:15.861Z,19.41
2017-03-20T02:44:26.250Z,19.55
2017-03-20T02:45:36.848Z,19.45
2017-03-20T02:46:47.133Z,19.45
2017-03-20T02:47:57.115Z,19.42
2017-03-20T02:49:07.415Z,19.47
2017-03-20T02:50:17.715Z,19.42
2017-03-20T02:51:28.259Z,19.47
2017-03-20T02:52:38.241Z,19.48
2017-03-20T02:53:47.610Z,19.44
2017-03-20T02:54:57.915Z,19.45
2017-03-20T02:56:08.221Z,19.38
2017-03-20T02:57:18.791Z,19.47
2017-03-20T02:58:29.745Z,19.52
2017-03-20T02:59:40.038Z,19.52
2017-03-20T03:00:50.333Z,19.45
2017-03-20T03:02:00.311Z,19.48
2017-03-20T03:03:10.855Z,19.45
2017-03-20T03:04:21.171Z,19.48
2017-03-20T03:05:31.473Z,19.52
2017-03-20T03:06:41.763Z,19.52
2017-03-20T03:07:51.759Z,19.44
2017-03-20T03:09:02.381Z,19.45
2017-03-20T03:10:12.682Z,19.48
2017-03-20T03:11:22.977Z,19.48
2017-03-20T03:12:33.279Z,19.44
2017-03-20T03:13:43.590Z,19.42
2017-03-20T03:14:53.833Z,19.44
2017-03-20T03:16:04.131Z,19.48
2017-03-20T03:17:13.807Z,19.42
2017-03-20T03:18:24.113Z,19.52
2017-03-20T03:19:34.410Z,19.44
2017-03-20T03:20:44.643Z,19.48
2017-03-20T03:21:54.947Z,19.48
2017-03-20T03:23:05.258Z,19.44
2017-03-20T03:24:15.555Z,19.48
2017-03-20T03:25:25.856Z,19.47
2017-03-20T03:26:36.448Z,19.49
2017-03-20T03:27:46.765Z,19.52
2017-03-20T03:28:57.076Z,19.49
2017-03-20T03:30:07.574Z,19.48
2017-03-20T03:31:17.556Z,19.48
2017-03-20T03:32:28.141Z,19.52
2017-03-20T03:33:38.442Z,19.39
2017-03-20T03:34:48.746Z,19.42
2017-03-20T03:35:59.046Z,19.49
2017-03-20T03:37:09.334Z,19.47
2017-03-20T03:38:19.268Z,19.45
2017-03-20T03:39:29.581Z,19.44
2017-03-20T03:40:39.874Z,19.48
2017-03-20T03:41:50.157Z,19.41
2017-03-20T03:43:00.150Z,19.45
2017-03-20T03:44:10.696Z,19.45
2017-03-20T03:45:20.995Z,19.44
2017-03-20T03:46:31.296Z,19.38
2017-03-20T03:47:41.290Z,19.44
2017-03-20T03:48:51.543Z,19.41
2017-03-20T03:50:02.099Z,19.44
2017-03-20T03:51:12.384Z,19.48
2017-03-20T03:52:22.684Z,19.44
2017-03-20T03:53:32.986Z,19.53
2017-03-20T03:54:42.979Z,19.45
2017-03-20T03:55:53.529Z,19.45
2017-03-20T03:57:03.510Z,19.45
2017-03-20T03:58:13.498Z,19.48
2017-03-20T03:59:23.815Z,19.48
2017-03-20T04:00:33.489Z,19.48
2017-03-20T04:01:43.736Z,19.49
2017-03-20T04:02:53.732Z,19.45
2017-03-20T04:04:04.032Z,19.49
2017-03-20T04:05:14.333Z,19.41
2017-03-20T04:06:24.644Z,19.48
2017-03-20T04:07:34.879Z,19.49
2017-03-20T04:08:45.174Z,19.49
2017-03-20T04:09:55.162Z,19.41
2017-03-20T04:11:05.157Z,19.39
2017-03-20T04:12:15.155Z,19.38
2017-03-20T04:13:25.707Z,19.41
2017-03-20T04:14:36.014Z,19.47
2017-03-20T04:15:46.003Z,19.47
2017-03-20T04:16:56.292Z,19.39
2017-03-20T04:18:06.590Z,19.48
2017-03-20T04:19:17.193Z,19.41
2017-03-20T04:20:27.181Z,19.41
2017-03-20T04:21:37.167Z,19.41
2017-03-20T04:22:47.472Z,19.45
2017-03-20T04:23:57.476Z,19.45
2017-03-20T04:25:08.115Z,19.39
2017-03-20T04:26:18.410Z,19.45
2017-03-20T04:27:28.390Z,19.45
2017-03-20T04:28:38.384Z,19.49
2017-03-20T04:29:48.692Z,19.49
2017-03-20T04:30:59.286Z,19.45
2017-03-20T04:32:09.587Z,19.45
2017-03-20T04:33:19.882Z,19.48
2017-03-20T04:34:30.180Z,19.38
2017-03-20T04:35:40.172Z,19.49
2017-03-20T04:36:50.724Z,19.44
2017-03-20T04:38:00.714Z,19.48
2017-03-20T04:39:11.026Z,19.42
2017-03-20T04:40:21.328Z,19.47
2017-03-20T04:41:31.635Z,19.45
2017-03-20T04:42:42.225Z,19.48
2017-03-20T04:43:52.487Z,19.53
2017-03-20T04:45:02.825Z,19.47
2017-03-20T04:46:13.127Z,19.38
2017-03-20T04:47:23.428Z,19.49
2017-03-20T04:48:33.978Z,19.42
2017-03-20T04:49:44.277Z,19.44
2017-03-20T04:50:54.574Z,19.44
2017-03-20T04:52:04.877Z,19.41
2017-03-20T04:53:14.567Z,19.48
2017-03-20T04:54:25.178Z,19.42
2017-03-20T04:55:35.476Z,19.39
2017-03-20T04:56:45.786Z,19.37
2017-03-20T04:57:56.081Z,19.48
2017-03-20T04:59:06.388Z,19.42
2017-03-20T05:00:16.937Z,19.39
2017-03-20T05:01:27.228Z,19.45
2017-03-20T05:02:37.244Z,19.41
2017-03-20T05:03:47.552Z,19.45
2017-03-20T05:04:57.855Z,19.41
2017-03-20T05:06:08.412Z,19.39
2017-03-20T05:07:18.714Z,19.41
2017-03-20T05:08:29.008Z,19.45
2017-03-20T05:09:39.302Z,19.44
2017-03-20T05:10:49.283Z,19.47
2017-03-20T05:11:59.875Z,19.45
2017-03-20T05:13:10.179Z,19.39
2017-03-20T05:14:20.492Z,19.48
2017-03-20T05:15:30.803Z,19.52
2017-03-20T05:16:41.126Z,19.47
2017-03-20T05:17:51.674Z,19.39
2017-03-20T05:19:01.980Z,19.52
2017-03-20T05:20:12.278Z,19.42
2017-03-20T05:21:22.589Z,19.47
2017-03-20T05:22:32.576Z,19.53
2017-03-20T05:23:43.147Z,19.44
2017-03-20T05:24:53.453Z,19.55
2017-03-20T05:26:03.453Z,19.45
2017-03-20T05:27:13.764Z,19.57
2017-03-20T05:28:24.072Z,19.42
2017-03-20T05:29:34.327Z,19.42
2017-03-20T05:30:44.627Z,19.41
2017-03-20T05:31:54.991Z,19.45
2017-03-20T05:33:05.308Z,19.52
2017-03-20T05:34:15.609Z,19.42
2017-03-20T05:35:26.221Z,19.42
2017-03-20T05:36:36.517Z,19.42
2017-03-20T05:37:46.514Z,19.48
2017-03-20T05:38:56.509Z,19.6
2017-03-20T05:40:06.842Z,19.6
2017-03-20T05:41:17.402Z,19.55
2017-03-20T05:42:27.693Z,19.55
2017-03-20T05:43:38.004Z,19.64
2017-03-20T05:44:48.307Z,19.6
2017-03-20T05:45:58.617Z,19.57
2017-03-20T05:47:09.212Z,19.57
2017-03-20T05:48:19.209Z,19.56
2017-03-20T05:49:29.533Z,19.53
2017-03-20T05:50:39.507Z,19.47
2017-03-20T05:51:49.490Z,19.6
2017-03-20T05:52:59.809Z,19.49
2017-03-20T05:54:10.135Z,19.59
2017-03-20T05:55:19.501Z,19.52
2017-03-20T05:56:29.507Z,19.56
2017-03-20T05:57:39.811Z,19.55
2017-03-20T05:58:50.381Z,19.74
2017-03-20T06:00:00.384Z,19.7
2017-03-20T06:01:10.684Z,19.77
2017-03-20T06:02:20.988Z,19.82
2017-03-20T06:03:31.296Z,19.82
2017-03-20T06:04:41.918Z,19.87
2017-03-20T06:05:52.231Z,19.81
2017-03-20T06:07:02.534Z,19.79
2017-03-20T06:08:12.525Z,19.78
2017-03-20T06:09:22.839Z,19.81
2017-03-20T06:10:33.807Z,19.81
2017-03-20T06:11:44.119Z,19.9
2017-03-20T06:12:54.135Z,19.81
2017-03-20T06:14:04.442Z,19.81
2017-03-20T06:15:14.764Z,19.87
2017-03-20T06:16:25.367Z,19.85
2017-03-20T06:17:35.675Z,19.75
2017-03-20T06:18:45.683Z,19.72
2017-03-20T06:19:56.019Z,19.75
2017-03-20T06:21:06.333Z,19.85
2017-03-20T06:22:16.949Z,19.89
2017-03-20T06:23:27.264Z,19.87
2017-03-20T06:24:37.594Z,19.89
2017-03-20T06:25:47.891Z,19.85
2017-03-20T06:26:58.178Z,19.87
2017-03-20T06:28:08.464Z,19.85
2017-03-20T06:29:18.829Z,19.87
2017-03-20T06:30:29.143Z,19.87
2017-03-20T06:31:39.453Z,19.93
2017-03-20T06:32:49.430Z,19.85
2017-03-20T06:33:59.991Z,19.87
2017-03-20T06:35:10.299Z,19.82
2017-03-20T06:36:20.599Z,19.92
2017-03-20T06:37:30.615Z,19.82
2017-03-20T06:38:40.609Z,19.85
2017-03-20T06:39:50.871Z,19.94
2017-03-20T06:41:01.219Z,19.92
2017-03-20T06:42:11.214Z,19.89
2017-03-20T06:43:21.525Z,19.94
2017-03-20T06:44:31.526Z,19.9
2017-03-20T06:45:42.142Z,19.89
2017-03-20T06:46:52.167Z,19.97
2017-03-20T06:48:02.479Z,19.82
2017-03-20T06:49:12.804Z,19.99
2017-03-20T06:50:22.796Z,19.85
2017-03-20T06:51:33.380Z,19.96
2017-03-20T06:52:43.757Z,19.93
2017-03-20T06:53:54.090Z,19.93
2017-03-20T06:55:04.535Z,19.93
2017-03-20T06:56:14.867Z,19.94
2017-03-20T06:57:25.184Z,19.99
2017-03-20T06:58:35.516Z,19.9
2017-03-20T06:59:45.828Z,19.87
2017-03-20T07:00:55.855Z,19.84
2017-03-20T07:02:06.170Z,19.82
2017-03-20T07:03:16.753Z,19.85
2017-03-20T07:04:27.085Z,19.87
2017-03-20T07:05:37.408Z,19.87
2017-03-20T07:06:47.757Z,19.89
2017-03-20T07:07:58.061Z,19.99
2017-03-20T07:09:08.650Z,19.9
2017-03-20T07:10:19.072Z,19.87
2017-03-20T07:11:29.428Z,19.9
2017-03-20T07:12:39.754Z,19.85
2017-03-20T07:13:50.077Z,19.84
2017-03-20T07:15:00.640Z,19.89
2017-03-20T07:16:10.657Z,19.85
2017-03-20T07:17:20.996Z,19.89
2017-03-20T07:18:31.335Z,19.84
2017-03-20T07:19:41.682Z,19.89
2017-03-20T07:20:52.378Z,19.84
2017-03-20T07:22:02.853Z,19.85
2017-03-20T07:23:13.194Z,19.89
2017-03-20T07:24:23.545Z,19.89
2017-03-20T07:25:33.965Z,19.93
2017-03-20T07:26:44.595Z,19.93
2017-03-20T07:27:54.278Z,19.87
2017-03-20T07:29:04.327Z,19.99
2017-03-20T07:30:14.369Z,19.97
2017-03-20T07:31:24.751Z,19.99
2017-03-20T07:32:35.427Z,19.99
2017-03-20T07:33:45.776Z,19.99
2017-03-20T07:34:56.126Z,20.02
2017-03-20T07:36:06.137Z,19.87
2017-03-20T07:37:16.472Z,19.94
2017-03-20T07:38:26.089Z,19.99
2017-03-20T07:39:36.414Z,19.93
2017-03-20T07:40:47.035Z,19.94
2017-03-20T07:41:57.387Z,19.97
2017-03-20T07:43:07.097Z,19.99
2017-03-20T07:44:17.744Z,20
2017-03-20T07:45:27.775Z,19.94
2017-03-20T07:46:38.093Z,20.02
2017-03-20T07:47:48.109Z,19.97
2017-03-20T07:48:58.497Z,19.94
2017-03-20T07:50:09.140Z,19.92
2017-03-20T07:51:19.476Z,20.08
2017-03-20T07:52:29.805Z,20.04
2017-03-20T07:53:40.170Z,20.02
2017-03-20T07:54:50.537Z,20.07
2017-03-20T07:56:01.258Z,20.08
2017-03-20T07:57:11.869Z,20.03
2017-03-20T07:58:22.217Z,20.04
2017-03-20T07:59:32.540Z,20.08
2017-03-20T08:00:42.918Z,20
2017-03-20T08:01:53.676Z,20.03
2017-03-20T08:03:04.001Z,19.97
2017-03-20T08:04:14.311Z,19.9
2017-03-20T08:05:24.627Z,19.97
2017-03-20T08:06:35.008Z,19.97
2017-03-20T08:07:45.600Z,19.97
2017-03-20T08:08:55.610Z,19.99
2017-03-20T08:10:05.924Z,19.99
2017-03-20T08:11:16.229Z,19.99
2017-03-20T08:12:26.216Z,20.03
2017-03-20T08:13:36.176Z,20.02
2017-03-20T08:14:46.591Z,20
2017-03-20T08:15:57.191Z,20
2017-03-20T08:17:07.329Z,19.96
2017-03-20T08:18:17.825Z,19.92
2017-03-20T08:19:28.672Z,19.94
2017-03-20T08:20:39.159Z,19.96
2017-03-20T08:21:49.536Z,19.96
2017-03-20T08:22:59.684Z,20.08
2017-03-20T08:24:10.032Z,20.08
2017-03-20T08:25:20.337Z,20
2017-03-20T08:26:30.332Z,19.97
2017-03-20T08:27:40.659Z,19.99
2017-03-20T08:28:50.990Z,19.97
2017-03-20T08:30:01.311Z,19.92
2017-03-20T08:31:11.884Z,20
2017-03-20T08:32:22.181Z,20.07
2017-03-20T08:33:32.502Z,20.04
2017-03-20T08:34:42.560Z,20.1
2017-03-20T08:35:52.866Z,19.99
2017-03-20T08:37:03.439Z,19.94
2017-03-20T08:38:13.757Z,19.97
2017-03-20T08:39:24.083Z,19.97
2017-03-20T08:40:34.383Z,19.94
2017-03-20T08:41:44.367Z,20
2017-03-20T08:42:54.970Z,20.14
2017-03-20T08:44:04.976Z,20.11
2017-03-20T08:45:15.299Z,20.11
2017-03-20T08:46:25.293Z,20.07
2017-03-20T08:47:35.312Z,20.14
2017-03-20T08:48:45.933Z,20.08
2017-03-20T08:49:56.275Z,20.14
2017-03-20T08:51:06.662Z,20.12
2017-03-20T08:52:17.014Z,20.1
2017-03-20T08:53:27.037Z,20.14
2017-03-20T08:54:37.606Z,20.1
2017-03-20T08:55:47.949Z,20.14
2017-03-20T08:56:58.200Z,20.15
2017-03-20T08:58:08.567Z,20.15
2017-03-20T08:59:18.899Z,20.18
2017-03-20T09:00:29.529Z,20.18
2017-03-20T09:01:39.850Z,20.19
2017-03-20T09:02:50.173Z,20.22
2017-03-20T09:04:00.490Z,20.27
2017-03-20T09:05:10.814Z,20.26
2017-03-20T09:06:21.104Z,20.26
2017-03-20T09:07:31.431Z,20.27
2017-03-20T09:08:41.780Z,20.21
2017-03-20T09:09:52.121Z,20.19
2017-03-20T09:11:02.576Z,20.21
2017-03-20T09:12:13.181Z,20.22
2017-03-20T09:13:23.508Z,20.22
2017-03-20T09:14:33.873Z,20.33
2017-03-20T09:15:44.211Z,20.33
2017-03-20T09:16:54.532Z,20.36
2017-03-20T09:18:05.108Z,20.29
2017-03-20T09:19:15.910Z,20.34
2017-03-20T09:20:26.257Z,20.36
2017-03-20T09:21:36.260Z,20.29
2017-03-20T09:22:46.562Z,20.36
2017-03-20T09:23:57.157Z,20.46
2017-03-20T09:25:07.177Z,20.3
2017-03-20T09:26:17.181Z,20.4
2017-03-20T09:27:27.246Z,20.42
2017-03-20T09:28:37.271Z,20.44
2017-03-20T09:29:47.983Z,20.44
2017-03-20T09:30:57.987Z,20.4
2017-03-20T09:32:08.366Z,20.44
2017-03-20T09:33:18.699Z,20.39
2017-03-20T09:34:29.029Z,20.44
2017-03-20T09:35:39.292Z,20.5
2017-03-20T09:36:49.667Z,20.56
2017-03-20T09:38:00.271Z,20.5
2017-03-20T09:39:10.296Z,20.4
2017-03-20T09:40:20.316Z,20.52
2017-03-20T09:41:30.891Z,20.42
2017-03-20T09:42:40.929Z,20.52
2017-03-20T09:43:51.261Z,20.46
2017-03-20T09:45:01.599Z,20.49
2017-03-20T09:46:11.600Z,20.55
2017-03-20T09:47:22.173Z,20.53
2017-03-20T09:48:32.170Z,20.46
2017-03-20T09:49:42.153Z,20.48
2017-03-20T09:50:52.477Z,20.39
2017-03-20T09:52:02.783Z,20.46
2017-03-20T09:53:13.429Z,20.39
2017-03-20T09:54:23.747Z,20.42
2017-03-20T09:55:34.088Z,20.42
2017-03-20T09:56:44.649Z,20.46
2017-03-20T09:57:55.019Z,20.53
2017-03-20T09:59:05.291Z,20.49
2017-03-20T10:00:15.634Z,20.46
2017-03-20T10:01:25.654Z,20.55
2017-03-20T10:02:35.981Z,20.42
2017-03-20T10:03:46.621Z,20.52
2017-03-20T10:04:57.414Z,20.53
2017-03-20T10:06:07.788Z,20.56
2017-03-20T10:07:18.098Z,20.5
2017-03-20T10:08:28.432Z,20.53
2017-03-20T10:09:38.791Z,20.49
2017-03-20T10:10:49.440Z,20.58
2017-03-20T10:11:59.802Z,20.5
2017-03-20T10:13:10.148Z,20.46
2017-03-20T10:14:20.165Z,20.42
2017-03-20T10:15:30.473Z,20.55
2017-03-20T10:16:40.766Z,20.55
2017-03-20T10:17:50.818Z,20.49
2017-03-20T10:19:01.174Z,20.55
2017-03-20T10:20:11.188Z,20.48
2017-03-20T10:21:21.182Z,20.55
2017-03-20T10:22:31.806Z,20.5
2017-03-20T10:23:42.145Z,20.53
2017-03-20T10:24:52.474Z,20.42
2017-03-20T10:26:02.479Z,20.5
2017-03-20T10:27:11.859Z,20.49
2017-03-20T10:28:22.112Z,20.53
2017-03-20T10:29:32.543Z,20.5
2017-03-20T10:30:42.867Z,20.42
2017-03-20T10:31:53.190Z,20.44
2017-03-20T10:33:03.532Z,20.5
2017-03-20T10:34:14.149Z,20.42
2017-03-20T10:35:24.560Z,20.4
2017-03-20T10:36:34.883Z,20.52
2017-03-20T10:37:45.215Z,20.46
2017-03-20T10:38:55.550Z,20.4
2017-03-20T10:40:05.812Z,20.42
2017-03-20T10:41:16.191Z,20.42
2017-03-20T10:42:26.553Z,20.44
2017-03-20T10:43:36.877Z,20.42
2017-03-20T10:44:47.222Z,20.44
2017-03-20T10:45:57.493Z,20.44
2017-03-20T10:47:07.855Z,20.42
2017-03-20T10:48:18.172Z,20.4
2017-03-20T10:49:28.490Z,20.48
2017-03-20T10:50:38.815Z,20.53
2017-03-20T10:51:49.401Z,20.4
2017-03-20T10:52:59.710Z,20.44
2017-03-20T10:54:10.030Z,20.53
2017-03-20T10:55:20.041Z,20.55
2017-03-20T10:56:29.730Z,20.48
2017-03-20T10:57:40.296Z,20.44
2017-03-20T10:58:50.640Z,20.49
2017-03-20T11:00:00.963Z,20.5
2017-03-20T11:01:10.960Z,20.44
2017-03-20T11:02:20.656Z,20.5
2017-03-20T11:03:31.209Z,20.53
2017-03-20T11:04:41.240Z,20.49
2017-03-20T11:05:51.247Z,20.58
2017-03-20T11:07:01.521Z,20.55
2017-03-20T11:08:11.843Z,20.53
2017-03-20T11:09:22.471Z,20.64
2017-03-20T11:10:32.835Z,20.59
2017-03-20T11:11:43.172Z,20.56
2017-03-20T11:12:53.507Z,20.64
2017-03-20T11:14:03.831Z,20.68
2017-03-20T11:15:13.846Z,20.6
2017-03-20T11:16:24.148Z,20.63
2017-03-20T11:17:34.462Z,20.6
2017-03-20T11:18:44.505Z,20.59
2017-03-20T11:19:54.832Z,20.56
2017-03-20T11:21:05.456Z,20.64
2017-03-20T11:22:15.441Z,20.67
2017-03-20T11:23:25.795Z,20.66
2017-03-20T11:24:36.129Z,20.78
2017-03-20T11:25:46.477Z,20.75
2017-03-20T11:26:56.733Z,20.78
2017-03-20T11:28:07.078Z,20.75
2017-03-20T11:29:17.396Z,20.78
2017-03-20T11:30:27.760Z,20.73
2017-03-20T11:31:37.807Z,20.85
2017-03-20T11:32:48.419Z,20.77
2017-03-20T11:33:58.456Z,20.88
2017-03-20T11:35:08.933Z,20.89
2017-03-20T11:36:19.247Z,20.83
2017-03-20T11:37:29.567Z,20.86
2017-03-20T11:38:39.553Z,20.86
2017-03-20T11:39:49.859Z,20.85
2017-03-20T11:40:59.917Z,20.9
2017-03-20T11:42:10.244Z,20.92
2017-03-20T11:43:20.277Z,20.86
2017-03-20T11:44:30.911Z,20.9
2017-03-20T11:45:41.237Z,20.9
2017-03-20T11:46:51.577Z,20.93
2017-03-20T11:48:01.935Z,20.92
2017-03-20T11:49:12.271Z,20.92
2017-03-20T11:50:22.909Z,20.88
2017-03-20T11:51:32.922Z,20.83
2017-03-20T11:52:43.232Z,20.88
2017-03-20T11:53:53.245Z,20.9
2017-03-20T11:55:03.562Z,20.86
2017-03-20T11:56:14.121Z,20.88
2017-03-20T11:57:24.457Z,20.95
2017-03-20T11:58:34.481Z,20.85
2017-03-20T11:59:44.829Z,20.89
2017-03-20T12:00:54.834Z,20.95
2017-03-20T12:02:05.141Z,20.89
2017-03-20T12:03:15.495Z,20.89
2017-03-20T12:04:25.838Z,20.89
2017-03-20T12:05:36.148Z,20.88
2017-03-20T12:06:46.456Z,20.89
2017-03-20T12:07:57.041Z,20.85
2017-03-20T12:09:07.354Z,20.88
2017-03-20T12:10:17.661Z,20.89
2017-03-20T12:11:27.659Z,20.83
2017-03-20T12:12:37.981Z,20.9
2017-03-20T12:13:48.231Z,20.85
2017-03-20T12:14:58.552Z,20.88
2017-03-20T12:16:08.562Z,20.89
2017-03-20T12:17:18.912Z,20.96
2017-03-20T12:18:29.233Z,20.92
2017-03-20T12:19:39.201Z,20.89
2017-03-20T12:20:49.202Z,20.96
2017-03-20T12:21:59.527Z,20.92
2017-03-20T12:23:09.221Z,20.89
2017-03-20T12:24:19.544Z,20.96
2017-03-20T12:25:30.112Z,20.95
2017-03-20T12:26:40.121Z,20.93
2017-03-20T12:27:50.130Z,20.88
2017-03-20T12:29:00.124Z,20.93
2017-03-20T12:30:10.418Z,20.96
2017-03-20T12:31:20.979Z,20.95
2017-03-20T12:32:31.296Z,20.86
2017-03-20T12:33:41.621Z,20.93
2017-03-20T12:34:51.936Z,20.89
2017-03-20T12:36:01.941Z,20.86
2017-03-20T12:37:12.514Z,20.86
2017-03-20T12:38:22.841Z,20.86
2017-03-20T12:39:33.158Z,20.9
2017-03-20T12:40:43.170Z,20.88
2017-03-20T12:41:53.484Z,20.86
2017-03-20T12:43:04.117Z,20.86
2017-03-20T12:44:14.117Z,20.89
2017-03-20T12:45:24.480Z,20.89
2017-03-20T12:46:34.795Z,20.92
2017-03-20T12:47:45.148Z,20.88
2017-03-20T12:48:55.469Z,20.89
2017-03-20T12:50:06.182Z,20.88
2017-03-20T12:51:16.533Z,21.01
2017-03-20T12:52:26.867Z,20.95
2017-03-20T12:53:37.196Z,20.88
2017-03-20T12:54:47.484Z,20.86
2017-03-20T12:55:57.810Z,20.89
2017-03-20T12:57:07.484Z,20.89
2017-03-20T12:58:17.811Z,20.88
2017-03-20T12:59:28.130Z,20.89
2017-03-20T13:00:38.719Z,20.89
2017-03-20T13:01:48.758Z,20.86
2017-03-20T13:02:59.163Z,20.86
2017-03-20T13:04:09.164Z,20.86
2017-03-20T13:05:19.167Z,20.89
2017-03-20T13:06:29.407Z,20.93
2017-03-20T13:07:39.442Z,20.9
2017-03-20T13:08:49.667Z,20.89
2017-03-20T13:10:00.162Z,20.92
2017-03-20T13:11:10.512Z,20.86
2017-03-20T13:12:21.168Z,20.86
2017-03-20T13:13:31.161Z,20.92
2017-03-20T13:14:41.510Z,20.89
2017-03-20T13:15:51.853Z,20.95
2017-03-20T13:17:02.189Z,20.89
2017-03-20T13:18:12.431Z,20.9
2017-03-20T13:19:22.446Z,20.85
2017-03-20T13:20:32.786Z,20.9
2017-03-20T13:21:43.108Z,20.86
2017-03-20T13:22:53.481Z,20.92
2017-03-20T13:24:04.095Z,20.9
2017-03-20T13:25:14.483Z,20.96
2017-03-20T13:26:24.856Z,20.95
2017-03-20T13:27:35.161Z,20.9
2017-03-20T13:28:45.487Z,20.9
2017-03-20T13:29:55.792Z,20.92
2017-03-20T13:31:06.141Z,20.86
2017-03-20T13:32:16.449Z,20.9
2017-03-20T13:33:26.752Z,20.89
2017-03-20T13:34:37.071Z,20.9
2017-03-20T13:35:47.691Z,20.89
2017-03-20T13:36:57.704Z,20.98
2017-03-20T13:38:07.745Z,20.95
2017-03-20T13:39:17.758Z,20.9
2017-03-20T13:40:27.787Z,20.98
2017-03-20T13:41:38.414Z,21
2017-03-20T13:42:49.186Z,21.01
2017-03-20T13:43:59.422Z,21.11
2017-03-20T13:45:09.429Z,21.08
2017-03-20T13:46:19.434Z,21.03
2017-03-20T13:47:30.118Z,21.03
2017-03-20T13:48:40.740Z,21.08
2017-03-20T13:49:51.183Z,21.04
2017-03-20T13:51:01.447Z,21.11
2017-03-20T13:52:11.779Z,21.11
2017-03-20T13:53:22.422Z,21.01
2017-03-20T13:54:32.761Z,21.07
2017-03-20T13:55:43.182Z,21.03
2017-03-20T13:56:53.190Z,21.05
2017-03-20T13:58:03.525Z,21.13
2017-03-20T13:59:13.807Z,21.05
2017-03-20T14:00:23.809Z,21.15
2017-03-20T14:01:34.133Z,21.1
2017-03-20T14:02:44.450Z,21.17
2017-03-20T14:03:54.803Z,21.14
2017-03-20T14:05:05.475Z,21.15
2017-03-20T14:06:16.171Z,21.22
2017-03-20T14:07:26.179Z,21.22
2017-03-20T14:08:36.189Z,21.15
2017-03-20T14:09:46.567Z,21.14
2017-03-20T14:10:56.818Z,21.22
2017-03-20T14:12:06.860Z,21.23
2017-03-20T14:13:17.194Z,21.17
2017-03-20T14:14:27.533Z,21.11
2017-03-20T14:15:37.864Z,21.11
2017-03-20T14:16:48.440Z,21.03
2017-03-20T14:17:58.758Z,21.13
2017-03-20T14:19:08.794Z,21.01
2017-03-20T14:20:18.815Z,21.1
2017-03-20T14:21:28.816Z,21.05
2017-03-20T14:22:39.100Z,21.07
2017-03-20T14:23:49.475Z,21.1
2017-03-20T14:24:59.801Z,21.17
2017-03-20T14:26:09.786Z,21.2
2017-03-20T14:27:19.819Z,21.22
2017-03-20T14:28:30.130Z,21.22
2017-03-20T14:29:40.498Z,21.23
2017-03-20T14:30:50.802Z,21.28
2017-03-20T14:32:00.819Z,21.23
2017-03-20T14:33:11.142Z,21.23
2017-03-20T14:34:21.722Z,21.19
2017-03-20T14:35:32.040Z,21.25
2017-03-20T14:36:42.332Z,21.22
2017-03-20T14:37:52.649Z,21.22
2017-03-20T14:39:02.962Z,21.23
2017-03-20T14:40:13.541Z,21.15
2017-03-20T14:41:23.874Z,21.17
2017-03-20T14:42:33.875Z,21.11
2017-03-20T14:43:43.564Z,21.19
2017-03-20T14:44:53.884Z,21.19
2017-03-20T14:46:04.507Z,21.14
2017-03-20T14:47:14.800Z,21.14
2017-03-20T14:48:25.125Z,21.11
2017-03-20T14:49:34.818Z,21.1
2017-03-20T14:50:44.813Z,21.1
2017-03-20T14:51:55.123Z,21.07
2017-03-20T14:53:05.445Z,21.13
2017-03-20T14:54:15.785Z,21.1
2017-03-20T14:55:26.115Z,21.05
2017-03-20T14:56:36.415Z,20.93
2017-03-20T14:57:46.649Z,21.01
2017-03-20T14:58:56.649Z,21.07
2017-03-20T15:00:06.665Z,21.1
2017-03-20T15:01:16.999Z,21.01
2017-03-20T15:02:27.320Z,21.11
2017-03-20T15:03:37.884Z,21.1
2017-03-20T15:04:48.201Z,21.01
2017-03-20T15:05:58.514Z,21.07
2017-03-20T15:07:08.822Z,21.15
2017-03-20T15:08:19.129Z,21.07